createdAt,value
2022-12-10T00:01:36.290Z,96.77
2022-12-10T00:04:38.917Z,96.97
2022-12-10T00:07:41.698Z,96.68
2022-12-10T00:10:44.593Z,96.60
2022-12-10T00:13:49.193Z,95.68
2022-12-10T00:16:51.949Z,96.09
2022-12-10T00:19:54.713Z,96.30
2022-12-10T00:22:57.431Z,96.40
2022-12-10T00:26:09.002Z,96.54
2022-12-10T00:29:13.344Z,96.58
2022-12-10T00:32:16.098Z,96.54
2022-12-10T00:35:18.856Z,96.36
2022-12-10T00:38:21.568Z,96.46
2022-12-10T00:41:24.609Z,96.54
2022-12-10T00:44:27.475Z,96.70
2022-12-10T00:47:30.261Z,96.74
2022-12-10T00:50:35.055Z,96.77
2022-12-10T00:53:41.259Z,96.76
2022-12-10T00:56:43.995Z,96.77
2022-12-10T00:59:46.804Z,96.79
2022-12-10T01:02:49.575Z,96.67
2022-12-10T01:05:53.525Z,96.66
2022-12-10T01:08:59.041Z,96.59
2022-12-10T01:12:03.848Z,96.57
2022-12-10T01:15:06.950Z,95.80
2022-12-10T01:18:09.685Z,94.48
2022-12-10T01:21:15.566Z,94.67
2022-12-10T01:24:18.287Z,95.43
2022-12-10T01:27:21.144Z,95.79
2022-12-10T01:30:24.374Z,95.77
2022-12-10T01:33:27.054Z,95.79
2022-12-10T01:36:33.902Z,95.98
2022-12-10T01:39:36.625Z,95.06
2022-12-10T01:42:39.428Z,95.52
2022-12-10T01:45:43.056Z,95.92
2022-12-10T01:48:45.789Z,96.20
2022-12-10T01:51:51.831Z,96.39
2022-12-10T01:54:54.599Z,96.54
2022-12-10T01:57:57.486Z,96.40
2022-12-10T02:01:09.846Z,96.74
2022-12-10T02:04:26.491Z,96.77
2022-12-10T02:07:28.850Z,95.12
2022-12-10T02:10:47.410Z,96.15
2022-12-10T02:14:01.774Z,96.78
2022-12-10T02:17:12.829Z,97.22
2022-12-10T02:20:32.785Z,97.51
2022-12-10T02:23:43.854Z,97.43
2022-12-10T02:27:07.648Z,97.45
2022-12-10T02:30:11.431Z,97.46
2022-12-10T02:33:15.431Z,97.62
2022-12-10T02:36:21.577Z,98.08
2022-12-10T02:39:32.694Z,98.08
2022-12-10T02:42:39.870Z,97.75
2022-12-10T02:45:44.822Z,97.64
2022-12-10T02:48:51.157Z,97.37
2022-12-10T02:51:54.311Z,97.54
2022-12-10T02:54:58.555Z,97.56
2022-12-10T02:58:16.960Z,97.60
2022-12-10T03:01:46.016Z,97.38
2022-12-10T03:04:55.360Z,97.01
2022-12-10T03:08:12.763Z,97.03
2022-12-10T03:11:20.662Z,96.59
2022-12-10T03:14:28.932Z,96.05
2022-12-10T03:17:33.322Z,96.35
2022-12-10T03:20:40.546Z,96.15
2022-12-10T03:23:46.743Z,95.64
2022-12-10T03:26:51.095Z,95.82
2022-12-10T03:29:57.234Z,95.84
2022-12-10T03:33:01.105Z,95.22
2022-12-10T03:36:04.447Z,94.06
2022-12-10T03:39:08.390Z,94.17
2022-12-10T03:42:10.728Z,93.51
2022-12-10T03:45:14.766Z,91.91
2022-12-10T03:48:17.411Z,92.82
2022-12-10T03:51:20.959Z,91.34
2022-12-10T03:54:23.543Z,91.73
2022-12-10T03:57:26.660Z,90.86
2022-12-10T04:00:29.209Z,92.11
2022-12-10T04:03:37.209Z,92.87
2022-12-10T04:06:41.695Z,92.92
2022-12-10T04:09:44.840Z,92.47
2022-12-10T04:13:07.284Z,92.48
2022-12-10T04:16:28.409Z,92.84
2022-12-10T04:19:31.046Z,93.18
2022-12-10T04:22:52.441Z,93.45
2022-12-10T04:26:13.797Z,93.71
2022-12-10T04:29:17.183Z,93.38
2022-12-10T04:32:20.873Z,92.70
2022-12-10T04:35:24.040Z,92.88
2022-12-10T04:38:26.427Z,93.14
2022-12-10T04:41:29.509Z,93.23
2022-12-10T04:44:32.616Z,93.09
2022-12-10T04:47:35.491Z,92.77
2022-12-10T04:50:37.851Z,93.12
2022-12-10T04:53:40.889Z,92.25
2022-12-10T04:56:44.197Z,92.65
2022-12-10T04:59:47.697Z,92.90
2022-12-10T05:02:50.786Z,93.18
2022-12-10T05:05:53.819Z,92.80
2022-12-10T05:08:56.954Z,93.06
2022-12-10T05:12:00.041Z,93.13
2022-12-10T05:15:02.566Z,93.07
2022-12-10T05:18:05.655Z,93.19
2022-12-10T05:21:12.000Z,91.90
2022-12-10T05:24:16.343Z,91.23
2022-12-10T05:27:18.801Z,92.17
2022-12-10T05:30:21.858Z,92.51
2022-12-10T05:33:25.315Z,92.69
2022-12-10T05:36:31.630Z,92.97
2022-12-10T05:39:34.090Z,93.15
2022-12-10T05:42:39.538Z,93.23
2022-12-10T05:45:42.264Z,93.01
2022-12-10T05:48:45.592Z,91.53
2022-12-10T05:51:48.104Z,92.00
2022-12-10T05:54:51.194Z,91.98
2022-12-10T05:57:53.956Z,92.55
2022-12-10T06:00:58.425Z,92.45
2022-12-10T06:04:03.029Z,92.67
2022-12-10T06:07:10.928Z,92.83
2022-12-10T06:10:14.003Z,92.99
2022-12-10T06:13:16.802Z,93.07
2022-12-10T06:16:19.575Z,92.52
2022-12-10T06:19:22.359Z,92.39
2022-12-10T06:22:25.087Z,92.58
2022-12-10T06:25:27.803Z,92.40
2022-12-10T06:28:30.527Z,92.27
2022-12-10T06:31:33.895Z,92.04
2022-12-10T06:34:42.632Z,90.64
2022-12-10T06:37:45.644Z,91.30
2022-12-10T06:40:48.387Z,91.54
2022-12-10T06:43:51.149Z,92.12
2022-12-10T06:46:54.059Z,92.42
2022-12-10T06:49:56.848Z,92.41
2022-12-10T06:52:59.547Z,92.12
2022-12-10T06:56:03.137Z,90.00
2022-12-10T06:59:09.777Z,89.69
2022-12-10T07:02:12.796Z,87.33
2022-12-10T07:05:15.813Z,86.75
2022-12-10T07:08:20.419Z,88.21
2022-12-10T07:11:25.115Z,88.61
2022-12-10T07:14:27.834Z,87.89
2022-12-10T07:17:30.933Z,87.31
2022-12-10T07:20:33.661Z,87.42
2022-12-10T07:23:36.362Z,87.30
2022-12-10T07:26:41.415Z,88.02
2022-12-10T07:29:45.417Z,88.00
2022-12-10T07:32:48.170Z,88.41
2022-12-10T07:35:50.876Z,88.55
2022-12-10T07:38:55.185Z,88.21
2022-12-10T07:41:57.954Z,88.15
2022-12-10T07:45:00.726Z,87.56
2022-12-10T07:48:03.688Z,86.94
2022-12-10T07:51:06.619Z,86.84
2022-12-10T07:54:09.332Z,86.76
2022-12-10T07:57:12.357Z,86.60
2022-12-10T08:00:17.736Z,85.13
2022-12-10T08:03:20.972Z,85.33
2022-12-10T08:06:25.068Z,85.42
2022-12-10T08:09:29.622Z,85.54
2022-12-10T08:12:32.175Z,84.40
2022-12-10T08:15:35.320Z,82.32
2022-12-10T08:18:38.096Z,81.84
2022-12-10T08:21:41.186Z,82.90
2022-12-10T08:24:43.765Z,83.03
2022-12-10T08:27:46.795Z,82.91
2022-12-10T08:30:49.649Z,82.76
2022-12-10T08:33:53.503Z,81.86
2022-12-10T08:36:56.098Z,80.90
2022-12-10T08:39:59.063Z,82.13
2022-12-10T08:43:01.556Z,81.17
2022-12-10T08:46:05.391Z,81.70
2022-12-10T08:49:08.223Z,81.75
2022-12-10T08:52:11.170Z,81.37
2022-12-10T08:55:13.814Z,80.75
2022-12-10T08:58:16.841Z,79.88
2022-12-10T09:01:20.404Z,79.25
2022-12-10T09:04:23.547Z,78.94
2022-12-10T09:07:26.215Z,79.44
2022-12-10T09:10:29.465Z,80.43
2022-12-10T09:13:32.027Z,81.13
2022-12-10T09:16:37.819Z,78.20
2022-12-10T09:19:41.382Z,79.07
2022-12-10T09:22:44.484Z,79.13
2022-12-10T09:25:47.164Z,79.76
2022-12-10T09:28:52.766Z,80.47
2022-12-10T09:31:55.947Z,79.45
2022-12-10T09:34:59.258Z,79.56
2022-12-10T09:38:01.807Z,79.12
2022-12-10T09:41:18.363Z,80.94
2022-12-10T09:44:37.211Z,81.12
2022-12-10T09:47:55.852Z,81.45
2022-12-10T09:51:18.449Z,82.33
2022-12-10T09:54:35.121Z,81.67
2022-12-10T09:57:45.291Z,82.36
2022-12-10T10:00:52.841Z,81.64
2022-12-10T10:03:55.659Z,81.13
2022-12-10T10:06:58.820Z,81.48
2022-12-10T10:10:06.169Z,80.42
2022-12-10T10:13:09.054Z,80.13
2022-12-10T10:16:28.854Z,79.65
2022-12-10T10:19:36.824Z,79.40
2022-12-10T10:22:41.556Z,79.43
2022-12-10T10:25:45.572Z,78.57
2022-12-10T10:28:52.715Z,78.86
2022-12-10T10:32:16.333Z,80.09
2022-12-10T10:35:27.023Z,80.90
2022-12-10T10:38:31.020Z,81.08
2022-12-10T10:41:40.756Z,79.96
2022-12-10T10:44:43.612Z,80.57
2022-12-10T10:47:46.407Z,79.54
2022-12-10T10:51:09.675Z,79.74
2022-12-10T10:54:12.716Z,80.13
2022-12-10T10:57:34.518Z,80.03
2022-12-10T11:00:37.282Z,79.10
2022-12-10T11:03:48.536Z,79.45
2022-12-10T11:06:54.570Z,80.19
2022-12-10T11:10:00.548Z,80.44
2022-12-10T11:13:05.427Z,81.01
2022-12-10T11:16:26.079Z,81.21
2022-12-10T11:19:29.003Z,81.11
2022-12-10T11:22:34.321Z,81.64
2022-12-10T11:25:57.568Z,81.94
2022-12-10T11:29:18.458Z,81.83
2022-12-10T11:32:35.207Z,82.03
2022-12-10T11:35:40.613Z,81.97
2022-12-10T11:38:53.686Z,81.97
2022-12-10T11:42:25.474Z,81.97
2022-12-10T11:46:07.207Z,81.23
2022-12-10T11:49:19.121Z,82.11
2022-12-10T11:52:43.252Z,82.69
2022-12-10T11:56:15.298Z,82.57
2022-12-10T12:00:04.135Z,82.22
2022-12-10T12:03:17.259Z,81.69
2022-12-10T12:06:36.076Z,82.08
2022-12-10T12:09:56.852Z,83.06
2022-12-10T12:13:18.399Z,83.05
2022-12-10T12:16:29.720Z,83.58
2022-12-10T12:19:40.224Z,83.76
2022-12-10T12:22:48.398Z,82.91
2022-12-10T12:25:58.669Z,83.75
2022-12-10T12:29:22.557Z,83.55
2022-12-10T12:32:37.366Z,82.76
2022-12-10T12:35:44.897Z,83.75
2022-12-10T12:39:12.765Z,84.38
2022-12-10T12:42:50.597Z,84.88
2022-12-10T12:45:55.299Z,85.55
2022-12-10T12:49:15.218Z,85.77
2022-12-10T12:52:30.538Z,85.12
2022-12-10T12:55:44.811Z,85.50
2022-12-10T12:59:13.646Z,85.68
2022-12-10T13:02:54.025Z,85.99
2022-12-10T13:06:18.033Z,86.02
2022-12-10T13:09:27.861Z,86.40
2022-12-10T13:12:32.963Z,86.04
2022-12-10T13:15:40.186Z,86.12
2022-12-10T13:18:43.090Z,85.41
2022-12-10T13:21:51.858Z,85.86
2022-12-10T13:25:12.406Z,86.13
2022-12-10T13:28:27.341Z,86.58
2022-12-10T13:31:49.035Z,86.51
2022-12-10T13:35:17.844Z,86.85
2022-12-10T13:38:23.875Z,86.62
2022-12-10T13:41:45.356Z,87.08
2022-12-10T13:44:51.227Z,87.25
2022-12-10T13:48:14.277Z,87.18
2022-12-10T13:51:26.632Z,87.25
2022-12-10T13:55:04.273Z,87.54
2022-12-10T13:58:20.237Z,87.70
2022-12-10T14:01:38.689Z,86.95
2022-12-10T14:05:01.662Z,87.27
2022-12-10T14:08:06.296Z,87.67
2022-12-10T14:11:23.736Z,87.89
2022-12-10T14:14:39.498Z,87.95
2022-12-10T14:17:44.412Z,87.83
2022-12-10T14:20:51.627Z,88.19
2022-12-10T14:23:56.711Z,87.44
2022-12-10T14:27:12.722Z,86.44
2022-12-10T14:30:22.607Z,87.10
2022-12-10T14:33:26.407Z,86.97
2022-12-10T14:36:33.437Z,86.54
2022-12-10T14:39:39.575Z,87.16
2022-12-10T14:42:42.471Z,87.66
2022-12-10T14:45:58.305Z,88.10
2022-12-10T14:49:01.382Z,88.29
2022-12-10T14:52:09.968Z,88.42
2022-12-10T14:55:19.616Z,88.11
2022-12-10T14:58:46.599Z,88.47
2022-12-10T15:01:57.152Z,88.47
2022-12-10T15:05:00.643Z,88.18
2022-12-10T15:08:16.841Z,87.59
2022-12-10T15:11:21.075Z,87.73
2022-12-10T15:14:25.697Z,87.74
2022-12-10T15:17:45.288Z,88.02
2022-12-10T15:20:52.585Z,88.33
2022-12-10T15:24:27.358Z,88.30
2022-12-10T15:27:30.339Z,88.15
2022-12-10T15:30:36.420Z,88.34
2022-12-10T15:33:54.693Z,87.88
2022-12-10T15:37:03.085Z,88.31
2022-12-10T15:40:20.754Z,88.51
2022-12-10T15:43:23.516Z,88.65
2022-12-10T15:46:26.616Z,88.27
2022-12-10T15:49:30.654Z,88.54
2022-12-10T15:52:33.817Z,88.78
2022-12-10T15:55:36.579Z,88.00
2022-12-10T15:58:43.124Z,88.71
2022-12-10T16:01:46.998Z,89.25
2022-12-10T16:04:49.815Z,89.56
2022-12-10T16:07:56.266Z,89.75
2022-12-10T16:11:03.491Z,89.26
2022-12-10T16:14:07.532Z,88.75
2022-12-10T16:17:13.096Z,88.94
2022-12-10T16:20:19.668Z,89.07
2022-12-10T16:23:22.572Z,89.49
2022-12-10T16:26:25.475Z,89.26
2022-12-10T16:29:28.239Z,89.15
2022-12-10T16:32:30.972Z,89.18
2022-12-10T16:35:33.750Z,90.00
2022-12-10T16:38:36.489Z,89.61
2022-12-10T16:41:39.634Z,89.78
2022-12-10T16:44:42.428Z,89.96
2022-12-10T16:47:45.309Z,89.47
2022-12-10T16:50:50.384Z,89.50
2022-12-10T16:53:53.157Z,90.01
2022-12-10T16:56:55.905Z,90.27
2022-12-10T16:59:58.692Z,90.13
2022-12-10T17:03:07.794Z,90.32
2022-12-10T17:06:12.904Z,89.80
2022-12-10T17:09:15.999Z,89.93
2022-12-10T17:12:19.179Z,89.96
2022-12-10T17:15:21.879Z,90.40
2022-12-10T17:18:24.982Z,90.65
2022-12-10T17:21:27.894Z,90.80
2022-12-10T17:24:31.444Z,90.32
2022-12-10T17:27:38.893Z,90.59
2022-12-10T17:30:42.669Z,91.02
2022-12-10T17:33:51.511Z,91.15
2022-12-10T17:36:55.098Z,90.75
2022-12-10T17:39:57.823Z,91.12
2022-12-10T17:43:00.525Z,91.35
2022-12-10T17:46:03.467Z,91.23
2022-12-10T17:49:07.014Z,91.31
2022-12-10T17:52:09.842Z,91.35
2022-12-10T17:55:12.618Z,90.05
2022-12-10T17:58:15.948Z,90.91
2022-12-10T18:01:20.084Z,91.56
2022-12-10T18:04:23.126Z,92.02
2022-12-10T18:07:25.607Z,92.27
2022-12-10T18:10:32.220Z,92.01
2022-12-10T18:13:34.680Z,91.64
2022-12-10T18:16:38.470Z,91.85
2022-12-10T18:19:44.295Z,91.92
2022-12-10T18:22:48.207Z,91.35
2022-12-10T18:25:51.102Z,91.53
2022-12-10T18:28:55.696Z,91.66
2022-12-10T18:31:58.061Z,91.79
2022-12-10T18:35:01.068Z,92.09
2022-12-10T18:38:03.864Z,92.34
2022-12-10T18:41:11.234Z,92.73
2022-12-10T18:44:17.106Z,92.65
2022-12-10T18:47:20.182Z,92.75
2022-12-10T18:50:25.776Z,93.00
2022-12-10T18:53:28.815Z,93.20
2022-12-10T18:56:32.908Z,92.99
2022-12-10T18:59:36.077Z,93.15
2022-12-10T19:02:43.619Z,93.24
2022-12-10T19:05:46.990Z,93.38
2022-12-10T19:12:13.714Z,93.03
2022-12-10T19:15:18.848Z,93.23
2022-12-10T19:18:21.935Z,93.51
2022-12-10T19:21:24.477Z,93.29
2022-12-10T19:24:27.507Z,93.29
2022-12-10T19:27:29.945Z,93.61
2022-12-10T19:30:33.213Z,93.65
2022-12-10T19:33:35.807Z,93.56
2022-12-10T19:36:40.344Z,93.72
2022-12-10T19:39:42.958Z,93.97
2022-12-10T19:42:46.244Z,94.05
2022-12-10T19:45:48.736Z,93.93
2022-12-10T19:48:52.047Z,93.57
2022-12-10T19:51:54.535Z,93.74
2022-12-10T19:54:57.770Z,93.84
2022-12-10T19:58:00.372Z,93.29
2022-12-10T20:01:07.047Z,93.12
2022-12-10T20:04:10.111Z,93.42
2022-12-10T20:07:13.116Z,93.35
2022-12-10T20:10:22.123Z,92.65
2022-12-10T20:13:25.100Z,93.22
2022-12-10T20:16:30.045Z,92.40
2022-12-10T20:19:33.709Z,92.84
2022-12-10T20:22:36.660Z,93.14
2022-12-10T20:25:42.051Z,93.29
2022-12-10T20:28:46.697Z,93.00
2022-12-10T20:31:51.621Z,93.35
2022-12-10T20:34:54.372Z,93.45
2022-12-10T20:37:58.699Z,93.57
2022-12-10T20:41:01.515Z,93.45
2022-12-10T20:44:04.519Z,92.42
2022-12-10T20:47:09.904Z,92.68
2022-12-10T20:50:16.764Z,93.22
2022-12-10T20:53:19.628Z,93.29
2022-12-10T20:56:24.711Z,93.48
2022-12-10T20:59:31.324Z,93.44
2022-12-10T21:02:34.395Z,93.57
2022-12-10T21:05:37.261Z,93.69
2022-12-10T21:08:40.103Z,94.01
2022-12-10T21:11:42.870Z,94.09
2022-12-10T21:14:54.060Z,94.00
2022-12-10T21:17:59.849Z,94.04
2022-12-10T21:21:03.157Z,93.99
2022-12-10T21:24:06.395Z,93.87
2022-12-10T21:27:09.196Z,93.71
2022-12-10T21:30:13.053Z,92.68
2022-12-10T21:33:22.884Z,92.03
2022-12-10T21:36:26.205Z,92.32
2022-12-10T21:39:28.999Z,92.53
2022-12-10T21:42:50.121Z,92.68
2022-12-10T21:45:55.969Z,92.46
2022-12-10T21:48:58.980Z,91.94
2022-12-10T21:52:01.693Z,91.92
2022-12-10T21:55:05.583Z,92.33
2022-12-10T21:58:08.445Z,91.52
2022-12-10T22:01:14.260Z,91.15
2022-12-10T22:04:17.865Z,91.34
2022-12-10T22:07:20.484Z,90.49
2022-12-10T22:10:23.722Z,90.30
2022-12-10T22:13:26.183Z,90.60
2022-12-10T22:16:29.432Z,90.80
2022-12-10T22:19:31.977Z,89.75
2022-12-10T22:22:35.347Z,89.04
2022-12-10T22:25:41.541Z,90.37
2022-12-10T22:28:44.981Z,89.32
2022-12-10T22:31:47.580Z,89.80
2022-12-10T22:34:53.687Z,89.58
2022-12-10T22:37:56.173Z,89.18
2022-12-10T22:41:02.333Z,89.82
2022-12-10T22:44:05.015Z,90.58
2022-12-10T22:47:08.354Z,89.17
2022-12-10T22:50:11.194Z,89.58
2022-12-10T22:53:14.106Z,89.66
2022-12-10T22:56:16.870Z,89.89
2022-12-10T22:59:19.868Z,89.42
2022-12-10T23:02:22.596Z,89.68
2022-12-10T23:05:26.566Z,88.65
2022-12-10T23:08:31.281Z,89.01
2022-12-10T23:11:34.504Z,89.17
2022-12-10T23:14:36.989Z,89.30
2022-12-10T23:17:40.020Z,89.52
2022-12-10T23:20:49.249Z,89.38
2022-12-10T23:23:54.604Z,89.40
2022-12-10T23:26:57.093Z,89.21
2022-12-10T23:30:00.164Z,89.80
2022-12-10T23:33:08.216Z,90.61
2022-12-10T23:36:12.061Z,90.83
2022-12-10T23:39:15.161Z,89.63
2022-12-10T23:42:18.127Z,90.20
2022-12-10T23:45:23.573Z,90.38
2022-12-10T23:48:26.721Z,89.89
2022-12-10T23:51:29.327Z,88.95
2022-12-10T23:54:33.504Z,89.01
2022-12-10T23:57:36.588Z,88.85
